sensor_id;sensor_type;location;lat;lon;timestamp;P1;durP1;ratioP1;P2;durP2;ratioP2
46377;SDS011;32083;47.360;9.650;2023-03-08T00:01:14;21.38;;;14.05;;
46377;SDS011;32083;47.360;9.650;2023-03-08T00:04:10;21.58;;;14.10;;
46377;SDS011;32083;47.360;9.650;2023-03-08T00:06:46;19.30;;;12.73;;
46377;SDS011;32083;47.360;9.650;2023-03-08T00:09:43;20.88;;;13.82;;
46377;SDS011;32083;47.360;9.650;2023-03-08T00:12:15;19.20;;;13.85;;
46377;SDS011;32083;47.360;9.650;2023-03-08T00:14:46;20.13;;;13.45;;
46377;SDS011;32083;47.360;9.650;2023-03-08T00:17:14;19.70;;;14.05;;
46377;SDS011;32083;47.360;9.650;2023-03-08T00:19:42;16.65;;;13.63;;
46377;SDS011;32083;47.360;9.650;2023-03-08T00:22:10;21.55;;;13.38;;
46377;SDS011;32083;47.360;9.650;2023-03-08T00:24:47;19.75;;;13.43;;
46377;SDS011;32083;47.360;9.650;2023-03-08T00:27:43;21.25;;;16.55;;
46377;SDS011;32083;47.360;9.650;2023-03-08T00:30:11;19.48;;;13.70;;
46377;SDS011;32083;47.360;9.650;2023-03-08T00:32:53;17.88;;;13.48;;
46377;SDS011;32083;47.360;9.650;2023-03-08T00:35:26;23.52;;;14.80;;
46377;SDS011;32083;47.360;9.650;2023-03-08T00:38:16;18.77;;;13.95;;
46377;SDS011;32083;47.360;9.650;2023-03-08T00:41:08;19.27;;;14.40;;
46377;SDS011;32083;47.360;9.650;2023-03-08T00:43:57;19.90;;;14.05;;
46377;SDS011;32083;47.360;9.650;2023-03-08T00:46:25;22.02;;;13.93;;
46377;SDS011;32083;47.360;9.650;2023-03-08T00:48:51;19.20;;;13.80;;
46377;SDS011;32083;47.360;9.650;2023-03-08T00:51:36;23.65;;;14.88;;
46377;SDS011;32083;47.360;9.650;2023-03-08T00:54:33;27.80;;;19.98;;
46377;SDS011;32083;47.360;9.650;2023-03-08T00:57:00;21.45;;;14.88;;
46377;SDS011;32083;47.360;9.650;2023-03-08T00:59:30;20.40;;;14.88;;
46377;SDS011;32083;47.360;9.650;2023-03-08T01:01:57;20.95;;;14.75;;
46377;SDS011;32083;47.360;9.650;2023-03-08T01:04:31;21.23;;;13.55;;
46377;SDS011;32083;47.360;9.650;2023-03-08T01:07:02;22.58;;;14.10;;
46377;SDS011;32083;47.360;9.650;2023-03-08T01:09:31;20.70;;;14.40;;
46377;SDS011;32083;47.360;9.650;2023-03-08T01:12:01;20.33;;;13.82;;
46377;SDS011;32083;47.360;9.650;2023-03-08T01:14:28;22.52;;;15.27;;
46377;SDS011;32083;47.360;9.650;2023-03-08T01:17:10;19.13;;;13.10;;
46377;SDS011;32083;47.360;9.650;2023-03-08T01:19:36;22.38;;;13.82;;
46377;SDS011;32083;47.360;9.650;2023-03-08T01:22:02;21.17;;;14.15;;
46377;SDS011;32083;47.360;9.650;2023-03-08T01:24:47;20.45;;;15.23;;
46377;SDS011;32083;47.360;9.650;2023-03-08T01:30:07;22.77;;;14.60;;
46377;SDS011;32083;47.360;9.650;2023-03-08T01:32:46;20.60;;;14.40;;
46377;SDS011;32083;47.360;9.650;2023-03-08T01:35:18;17.00;;;13.13;;
46377;SDS011;32083;47.360;9.650;2023-03-08T01:38:11;19.60;;;12.95;;
46377;SDS011;32083;47.360;9.650;2023-03-08T01:40:40;22.30;;;14.00;;
46377;SDS011;32083;47.360;9.650;2023-03-08T01:43:38;20.08;;;14.15;;
46377;SDS011;32083;47.360;9.650;2023-03-08T01:46:29;22.40;;;13.50;;
46377;SDS011;32083;47.360;9.650;2023-03-08T01:49:08;18.35;;;13.70;;
46377;SDS011;32083;47.360;9.650;2023-03-08T01:55:00;19.75;;;14.40;;
46377;SDS011;32083;47.360;9.650;2023-03-08T01:57:39;24.92;;;16.50;;
46377;SDS011;32083;47.360;9.650;2023-03-08T02:00:24;20.00;;;13.98;;
46377;SDS011;32083;47.360;9.650;2023-03-08T02:02:56;19.27;;;14.68;;
46377;SDS011;32083;47.360;9.650;2023-03-08T02:05:35;20.38;;;14.77;;
46377;SDS011;32083;47.360;9.650;2023-03-08T02:08:06;21.50;;;15.57;;
46377;SDS011;32083;47.360;9.650;2023-03-08T02:10:46;20.92;;;14.15;;
46377;SDS011;32083;47.360;9.650;2023-03-08T02:13:36;23.85;;;15.02;;
46377;SDS011;32083;47.360;9.650;2023-03-08T02:16:30;20.25;;;14.60;;
46377;SDS011;32083;47.360;9.650;2023-03-08T02:18:58;20.10;;;14.25;;
46377;SDS011;32083;47.360;9.650;2023-03-08T02:21:50;18.85;;;13.60;;
46377;SDS011;32083;47.360;9.650;2023-03-08T02:24:21;20.52;;;14.57;;
46377;SDS011;32083;47.360;9.650;2023-03-08T02:26:59;19.75;;;13.57;;
46377;SDS011;32083;47.360;9.650;2023-03-08T02:29:30;23.13;;;15.40;;
46377;SDS011;32083;47.360;9.650;2023-03-08T02:31:56;18.73;;;14.88;;
46377;SDS011;32083;47.360;9.650;2023-03-08T02:34:22;21.25;;;14.70;;
46377;SDS011;32083;47.360;9.650;2023-03-08T02:36:50;19.30;;;13.68;;
46377;SDS011;32083;47.360;9.650;2023-03-08T02:39:18;22.60;;;16.30;;
46377;SDS011;32083;47.360;9.650;2023-03-08T02:41:45;20.95;;;14.55;;
46377;SDS011;32083;47.360;9.650;2023-03-08T02:44:16;21.60;;;15.57;;
46377;SDS011;32083;47.360;9.650;2023-03-08T02:46:42;19.45;;;14.25;;
46377;SDS011;32083;47.360;9.650;2023-03-08T02:49:11;21.73;;;15.50;;
46377;SDS011;32083;47.360;9.650;2023-03-08T02:51:45;20.30;;;15.15;;
46377;SDS011;32083;47.360;9.650;2023-03-08T02:56:48;21.10;;;15.25;;
46377;SDS011;32083;47.360;9.650;2023-03-08T02:59:20;22.63;;;14.98;;
46377;SDS011;32083;47.360;9.650;2023-03-08T03:01:53;21.55;;;15.55;;
46377;SDS011;32083;47.360;9.650;2023-03-08T03:04:28;20.60;;;14.88;;
46377;SDS011;32083;47.360;9.650;2023-03-08T03:07:10;19.55;;;14.88;;
46377;SDS011;32083;47.360;9.650;2023-03-08T03:09:42;22.60;;;15.07;;
46377;SDS011;32083;47.360;9.650;2023-03-08T03:12:17;20.42;;;15.57;;
46377;SDS011;32083;47.360;9.650;2023-03-08T03:14:46;19.42;;;15.20;;
46377;SDS011;32083;47.360;9.650;2023-03-08T03:17:12;22.98;;;15.18;;
46377;SDS011;32083;47.360;9.650;2023-03-08T03:19:51;17.27;;;14.10;;
46377;SDS011;32083;47.360;9.650;2023-03-08T03:22:24;22.38;;;15.20;;
46377;SDS011;32083;47.360;9.650;2023-03-08T03:24:50;23.25;;;15.65;;
46377;SDS011;32083;47.360;9.650;2023-03-08T03:27:16;20.92;;;14.60;;
46377;SDS011;32083;47.360;9.650;2023-03-08T03:29:43;27.13;;;14.35;;
46377;SDS011;32083;47.360;9.650;2023-03-08T03:32:31;25.10;;;15.00;;
46377;SDS011;32083;47.360;9.650;2023-03-08T03:34:57;21.65;;;15.35;;
46377;SDS011;32083;47.360;9.650;2023-03-08T03:37:23;19.98;;;15.30;;
46377;SDS011;32083;47.360;9.650;2023-03-08T03:39:49;23.45;;;16.38;;
46377;SDS011;32083;47.360;9.650;2023-03-08T03:42:16;21.10;;;16.92;;
46377;SDS011;32083;47.360;9.650;2023-03-08T03:44:44;20.67;;;15.57;;
46377;SDS011;32083;47.360;9.650;2023-03-08T03:47:13;24.67;;;15.23;;
46377;SDS011;32083;47.360;9.650;2023-03-08T03:49:41;24.38;;;15.25;;
46377;SDS011;32083;47.360;9.650;2023-03-08T03:52:10;21.20;;;16.40;;
46377;SDS011;32083;47.360;9.650;2023-03-08T03:54:43;23.73;;;16.30;;
46377;SDS011;32083;47.360;9.650;2023-03-08T03:57:13;22.83;;;14.80;;
46377;SDS011;32083;47.360;9.650;2023-03-08T03:59:40;20.75;;;16.25;;
46377;SDS011;32083;47.360;9.650;2023-03-08T04:02:10;22.70;;;15.82;;
46377;SDS011;32083;47.360;9.650;2023-03-08T04:05:08;22.13;;;14.80;;
46377;SDS011;32083;47.360;9.650;2023-03-08T04:07:42;27.35;;;16.38;;
46377;SDS011;32083;47.360;9.650;2023-03-08T04:10:10;21.30;;;15.85;;
46377;SDS011;32083;47.360;9.650;2023-03-08T04:12:41;22.17;;;16.73;;
46377;SDS011;32083;47.360;9.650;2023-03-08T04:15:21;21.10;;;15.23;;
46377;SDS011;32083;47.360;9.650;2023-03-08T04:17:51;21.05;;;14.88;;
46377;SDS011;32083;47.360;9.650;2023-03-08T04:20:36;23.27;;;15.35;;
46377;SDS011;32083;47.360;9.650;2023-03-08T04:23:01;24.45;;;16.45;;
46377;SDS011;32083;47.360;9.650;2023-03-08T04:25:36;21.02;;;14.65;;
46377;SDS011;32083;47.360;9.650;2023-03-08T04:28:25;27.75;;;16.08;;
46377;SDS011;32083;47.360;9.650;2023-03-08T04:31:10;22.08;;;15.40;;
46377;SDS011;32083;47.360;9.650;2023-03-08T04:33:48;26.80;;;15.38;;
46377;SDS011;32083;47.360;9.650;2023-03-08T04:36:20;25.75;;;15.30;;
46377;SDS011;32083;47.360;9.650;2023-03-08T04:38:46;21.30;;;14.05;;
46377;SDS011;32083;47.360;9.650;2023-03-08T04:41:16;24.85;;;15.57;;
46377;SDS011;32083;47.360;9.650;2023-03-08T04:43:46;27.15;;;17.65;;
46377;SDS011;32083;47.360;9.650;2023-03-08T04:46:17;21.38;;;14.82;;
46377;SDS011;32083;47.360;9.650;2023-03-08T04:48:47;23.98;;;15.75;;
46377;SDS011;32083;47.360;9.650;2023-03-08T04:51:21;22.77;;;16.20;;
46377;SDS011;32083;47.360;9.650;2023-03-08T04:53:49;21.42;;;14.95;;
46377;SDS011;32083;47.360;9.650;2023-03-08T04:56:15;22.75;;;15.40;;
46377;SDS011;32083;47.360;9.650;2023-03-08T04:58:41;23.20;;;16.42;;
46377;SDS011;32083;47.360;9.650;2023-03-08T05:01:18;21.45;;;15.73;;
46377;SDS011;32083;47.360;9.650;2023-03-08T05:03:50;22.70;;;15.07;;
46377;SDS011;32083;47.360;9.650;2023-03-08T05:06:19;24.95;;;16.00;;
46377;SDS011;32083;47.360;9.650;2023-03-08T05:08:48;25.20;;;16.45;;
46377;SDS011;32083;47.360;9.650;2023-03-08T05:11:22;22.80;;;15.43;;
46377;SDS011;32083;47.360;9.650;2023-03-08T05:13:54;24.35;;;16.67;;
46377;SDS011;32083;47.360;9.650;2023-03-08T05:16:24;20.60;;;14.55;;
46377;SDS011;32083;47.360;9.650;2023-03-08T05:18:56;22.52;;;15.93;;
46377;SDS011;32083;47.360;9.650;2023-03-08T05:21:22;27.20;;;16.38;;
46377;SDS011;32083;47.360;9.650;2023-03-08T05:23:53;29.35;;;18.23;;
46377;SDS011;32083;47.360;9.650;2023-03-08T05:26:19;21.25;;;15.80;;
46377;SDS011;32083;47.360;9.650;2023-03-08T05:28:45;22.83;;;16.48;;
46377;SDS011;32083;47.360;9.650;2023-03-08T05:31:12;21.58;;;15.20;;
46377;SDS011;32083;47.360;9.650;2023-03-08T05:33:39;25.35;;;16.42;;
46377;SDS011;32083;47.360;9.650;2023-03-08T05:36:29;21.27;;;15.38;;
46377;SDS011;32083;47.360;9.650;2023-03-08T05:38:57;26.70;;;16.45;;
46377;SDS011;32083;47.360;9.650;2023-03-08T05:41:23;24.27;;;18.02;;
46377;SDS011;32083;47.360;9.650;2023-03-08T05:43:51;24.00;;;15.98;;
46377;SDS011;32083;47.360;9.650;2023-03-08T05:46:17;23.17;;;14.85;;
46377;SDS011;32083;47.360;9.650;2023-03-08T05:48:45;22.52;;;16.40;;
46377;SDS011;32083;47.360;9.650;2023-03-08T05:51:13;24.25;;;15.57;;
46377;SDS011;32083;47.360;9.650;2023-03-08T05:53:40;21.00;;;16.10;;
46377;SDS011;32083;47.360;9.650;2023-03-08T05:58:43;20.52;;;16.00;;
46377;SDS011;32083;47.360;9.650;2023-03-08T06:01:13;24.00;;;14.55;;
46377;SDS011;32083;47.360;9.650;2023-03-08T06:03:42;19.83;;;15.80;;
46377;SDS011;32083;47.360;9.650;2023-03-08T06:06:13;23.67;;;16.75;;
46377;SDS011;32083;47.360;9.650;2023-03-08T06:08:42;26.30;;;15.65;;
46377;SDS011;32083;47.360;9.650;2023-03-08T06:11:10;22.15;;;15.45;;
46377;SDS011;32083;47.360;9.650;2023-03-08T06:13:44;21.55;;;15.27;;
46377;SDS011;32083;47.360;9.650;2023-03-08T06:16:10;23.05;;;15.40;;
46377;SDS011;32083;47.360;9.650;2023-03-08T06:18:36;25.58;;;17.75;;
46377;SDS011;32083;47.360;9.650;2023-03-08T06:23:36;30.70;;;20.73;;
46377;SDS011;32083;47.360;9.650;2023-03-08T06:26:03;28.50;;;18.70;;
46377;SDS011;32083;47.360;9.650;2023-03-08T06:28:30;24.77;;;17.75;;
46377;SDS011;32083;47.360;9.650;2023-03-08T06:30:56;30.92;;;18.33;;
46377;SDS011;32083;47.360;9.650;2023-03-08T06:33:27;25.30;;;17.05;;
46377;SDS011;32083;47.360;9.650;2023-03-08T06:36:09;23.73;;;18.58;;
46377;SDS011;32083;47.360;9.650;2023-03-08T06:38:40;33.13;;;17.65;;
46377;SDS011;32083;47.360;9.650;2023-03-08T06:41:07;28.00;;;17.45;;
46377;SDS011;32083;47.360;9.650;2023-03-08T06:43:34;25.70;;;16.30;;
46377;SDS011;32083;47.360;9.650;2023-03-08T06:46:07;25.15;;;17.63;;
46377;SDS011;32083;47.360;9.650;2023-03-08T06:48:38;25.73;;;17.83;;
46377;SDS011;32083;47.360;9.650;2023-03-08T06:51:05;26.35;;;17.05;;
46377;SDS011;32083;47.360;9.650;2023-03-08T06:53:31;26.38;;;18.33;;
46377;SDS011;32083;47.360;9.650;2023-03-08T06:56:00;25.25;;;17.20;;
46377;SDS011;32083;47.360;9.650;2023-03-08T06:58:27;24.75;;;17.52;;
46377;SDS011;32083;47.360;9.650;2023-03-08T07:00:54;31.98;;;18.42;;
46377;SDS011;32083;47.360;9.650;2023-03-08T07:03:20;27.20;;;17.88;;
46377;SDS011;32083;47.360;9.650;2023-03-08T07:05:47;29.85;;;16.33;;
46377;SDS011;32083;47.360;9.650;2023-03-08T07:08:13;25.95;;;16.02;;
46377;SDS011;32083;47.360;9.650;2023-03-08T07:10:39;25.58;;;16.92;;
46377;SDS011;32083;47.360;9.650;2023-03-08T07:13:05;31.17;;;18.15;;
46377;SDS011;32083;47.360;9.650;2023-03-08T07:15:31;29.63;;;15.65;;
46377;SDS011;32083;47.360;9.650;2023-03-08T07:17:57;25.83;;;16.23;;
46377;SDS011;32083;47.360;9.650;2023-03-08T07:20:23;25.88;;;16.00;;
46377;SDS011;32083;47.360;9.650;2023-03-08T07:22:51;24.08;;;15.80;;
46377;SDS011;32083;47.360;9.650;2023-03-08T07:25:18;22.30;;;15.15;;
46377;SDS011;32083;47.360;9.650;2023-03-08T07:27:45;20.23;;;14.25;;
46377;SDS011;32083;47.360;9.650;2023-03-08T07:30:12;22.88;;;14.52;;
46377;SDS011;32083;47.360;9.650;2023-03-08T07:32:39;21.45;;;13.93;;
46377;SDS011;32083;47.360;9.650;2023-03-08T07:35:09;20.30;;;12.80;;
46377;SDS011;32083;47.360;9.650;2023-03-08T07:37:37;20.73;;;13.65;;
46377;SDS011;32083;47.360;9.650;2023-03-08T07:40:04;19.38;;;13.63;;
46377;SDS011;32083;47.360;9.650;2023-03-08T07:42:31;21.70;;;14.35;;
46377;SDS011;32083;47.360;9.650;2023-03-08T07:44:57;27.52;;;17.27;;
46377;SDS011;32083;47.360;9.650;2023-03-08T07:47:23;27.38;;;18.80;;
46377;SDS011;32083;47.360;9.650;2023-03-08T07:49:49;30.77;;;18.25;;
46377;SDS011;32083;47.360;9.650;2023-03-08T07:52:14;25.52;;;17.40;;
46377;SDS011;32083;47.360;9.650;2023-03-08T07:54:40;22.83;;;16.00;;
46377;SDS011;32083;47.360;9.650;2023-03-08T07:57:10;25.52;;;15.93;;
46377;SDS011;32083;47.360;9.650;2023-03-08T07:59:38;23.90;;;15.90;;
46377;SDS011;32083;47.360;9.650;2023-03-08T08:02:04;20.95;;;15.02;;
46377;SDS011;32083;47.360;9.650;2023-03-08T08:04:30;22.65;;;13.70;;
46377;SDS011;32083;47.360;9.650;2023-03-08T08:06:58;20.83;;;13.57;;
46377;SDS011;32083;47.360;9.650;2023-03-08T08:09:24;19.02;;;11.93;;
46377;SDS011;32083;47.360;9.650;2023-03-08T08:11:50;24.27;;;15.52;;
46377;SDS011;32083;47.360;9.650;2023-03-08T08:14:16;33.13;;;15.40;;
46377;SDS011;32083;47.360;9.650;2023-03-08T08:16:42;20.90;;;14.70;;
46377;SDS011;32083;47.360;9.650;2023-03-08T08:19:09;27.00;;;15.50;;
46377;SDS011;32083;47.360;9.650;2023-03-08T08:21:36;26.75;;;16.23;;
46377;SDS011;32083;47.360;9.650;2023-03-08T08:24:02;32.60;;;15.23;;
46377;SDS011;32083;47.360;9.650;2023-03-08T08:26:28;24.40;;;15.35;;
46377;SDS011;32083;47.360;9.650;2023-03-08T08:28:54;23.30;;;15.38;;
46377;SDS011;32083;47.360;9.650;2023-03-08T08:31:21;26.50;;;15.43;;
46377;SDS011;32083;47.360;9.650;2023-03-08T08:33:49;22.02;;;14.05;;
46377;SDS011;32083;47.360;9.650;2023-03-08T08:36:16;17.95;;;13.07;;
46377;SDS011;32083;47.360;9.650;2023-03-08T08:38:43;29.13;;;15.25;;
46377;SDS011;32083;47.360;9.650;2023-03-08T08:41:10;23.38;;;13.73;;
46377;SDS011;32083;47.360;9.650;2023-03-08T08:43:41;23.52;;;14.77;;
46377;SDS011;32083;47.360;9.650;2023-03-08T08:46:08;20.75;;;13.88;;
46377;SDS011;32083;47.360;9.650;2023-03-08T08:48:34;24.60;;;16.08;;
46377;SDS011;32083;47.360;9.650;2023-03-08T08:51:02;28.55;;;13.27;;
46377;SDS011;32083;47.360;9.650;2023-03-08T08:53:29;19.02;;;14.02;;
46377;SDS011;32083;47.360;9.650;2023-03-08T08:55:55;24.00;;;15.88;;
46377;SDS011;32083;47.360;9.650;2023-03-08T08:58:22;21.75;;;14.23;;
46377;SDS011;32083;47.360;9.650;2023-03-08T09:00:48;17.60;;;13.18;;
46377;SDS011;32083;47.360;9.650;2023-03-08T09:03:14;22.40;;;14.32;;
46377;SDS011;32083;47.360;9.650;2023-03-08T09:05:41;23.05;;;16.80;;
46377;SDS011;32083;47.360;9.650;2023-03-08T09:08:08;19.83;;;15.40;;
46377;SDS011;32083;47.360;9.650;2023-03-08T09:10:36;21.85;;;16.05;;
46377;SDS011;32083;47.360;9.650;2023-03-08T09:13:03;21.80;;;15.25;;
46377;SDS011;32083;47.360;9.650;2023-03-08T09:15:30;26.48;;;15.80;;
46377;SDS011;32083;47.360;9.650;2023-03-08T09:17:56;26.83;;;18.05;;
46377;SDS011;32083;47.360;9.650;2023-03-08T09:20:22;27.77;;;16.90;;
46377;SDS011;32083;47.360;9.650;2023-03-08T09:22:48;25.27;;;16.67;;
46377;SDS011;32083;47.360;9.650;2023-03-08T09:25:14;21.45;;;14.65;;
46377;SDS011;32083;47.360;9.650;2023-03-08T09:27:43;22.42;;;15.75;;
46377;SDS011;32083;47.360;9.650;2023-03-08T09:30:10;29.02;;;16.27;;
46377;SDS011;32083;47.360;9.650;2023-03-08T09:32:37;23.80;;;17.42;;
46377;SDS011;32083;47.360;9.650;2023-03-08T09:35:04;23.02;;;15.40;;
46377;SDS011;32083;47.360;9.650;2023-03-08T09:37:31;27.10;;;17.38;;
46377;SDS011;32083;47.360;9.650;2023-03-08T09:39:57;23.50;;;15.85;;
46377;SDS011;32083;47.360;9.650;2023-03-08T09:42:28;25.83;;;16.08;;
46377;SDS011;32083;47.360;9.650;2023-03-08T09:45:10;26.15;;;16.33;;
46377;SDS011;32083;47.360;9.650;2023-03-08T09:48:02;28.77;;;17.27;;
46377;SDS011;32083;47.360;9.650;2023-03-08T09:50:51;24.67;;;17.60;;
46377;SDS011;32083;47.360;9.650;2023-03-08T09:53:40;25.02;;;15.85;;
46377;SDS011;32083;47.360;9.650;2023-03-08T09:56:24;22.42;;;16.38;;
46377;SDS011;32083;47.360;9.650;2023-03-08T10:07:21;23.70;;;15.60;;
46377;SDS011;32083;47.360;9.650;2023-03-08T10:14:57;26.55;;;16.98;;
46377;SDS011;32083;47.360;9.650;2023-03-08T10:17:44;20.80;;;15.05;;
46377;SDS011;32083;47.360;9.650;2023-03-08T10:20:19;25.27;;;17.27;;
46377;SDS011;32083;47.360;9.650;2023-03-08T10:22:55;28.23;;;18.75;;
46377;SDS011;32083;47.360;9.650;2023-03-08T10:25:27;24.90;;;17.23;;
46377;SDS011;32083;47.360;9.650;2023-03-08T10:27:59;22.55;;;14.82;;
46377;SDS011;32083;47.360;9.650;2023-03-08T10:30:34;25.00;;;16.17;;
46377;SDS011;32083;47.360;9.650;2023-03-08T10:33:05;20.73;;;14.65;;
46377;SDS011;32083;47.360;9.650;2023-03-08T10:35:56;21.77;;;16.42;;
46377;SDS011;32083;47.360;9.650;2023-03-08T10:38:24;21.60;;;14.13;;
46377;SDS011;32083;47.360;9.650;2023-03-08T10:41:11;21.02;;;14.77;;
46377;SDS011;32083;47.360;9.650;2023-03-08T10:43:49;17.15;;;13.88;;
46377;SDS011;32083;47.360;9.650;2023-03-08T10:46:21;22.42;;;15.15;;
46377;SDS011;32083;47.360;9.650;2023-03-08T10:48:49;25.05;;;17.60;;
46377;SDS011;32083;47.360;9.650;2023-03-08T10:51:24;21.88;;;14.57;;
46377;SDS011;32083;47.360;9.650;2023-03-08T10:53:53;18.77;;;14.65;;
46377;SDS011;32083;47.360;9.650;2023-03-08T10:56:22;20.27;;;12.20;;
46377;SDS011;32083;47.360;9.650;2023-03-08T10:59:02;16.83;;;9.10;;
46377;SDS011;32083;47.360;9.650;2023-03-08T11:01:30;15.45;;;9.20;;
46377;SDS011;32083;47.360;9.650;2023-03-08T11:04:33;14.13;;;8.43;;
46377;SDS011;32083;47.360;9.650;2023-03-08T11:06:52;20.58;;;12.93;;
46377;SDS011;32083;47.360;9.650;2023-03-08T11:11:51;15.07;;;10.77;;
46377;SDS011;32083;47.360;9.650;2023-03-08T11:14:22;20.00;;;11.98;;
46377;SDS011;32083;47.360;9.650;2023-03-08T11:22:50;17.40;;;11.63;;
46377;SDS011;32083;47.360;9.650;2023-03-08T11:33:48;11.20;;;7.40;;
46377;SDS011;32083;47.360;9.650;2023-03-08T11:38:56;11.70;;;7.10;;
46377;SDS011;32083;47.360;9.650;2023-03-08T11:41:42;7.35;;;5.30;;
46377;SDS011;32083;47.360;9.650;2023-03-08T11:52:29;5.05;;;4.00;;
46377;SDS011;32083;47.360;9.650;2023-03-08T11:58:10;5.85;;;4.90;;
46377;SDS011;32083;47.360;9.650;2023-03-08T12:00:45;8.70;;;5.28;;
46377;SDS011;32083;47.360;9.650;2023-03-08T12:03:17;7.70;;;5.07;;
46377;SDS011;32083;47.360;9.650;2023-03-08T12:06:29;9.98;;;6.40;;
46377;SDS011;32083;47.360;9.650;2023-03-08T12:08:54;8.60;;;5.75;;
46377;SDS011;32083;47.360;9.650;2023-03-08T12:11:32;8.15;;;5.72;;
46377;SDS011;32083;47.360;9.650;2023-03-08T12:14:20;13.77;;;7.10;;
46377;SDS011;32083;47.360;9.650;2023-03-08T12:16:49;14.02;;;8.15;;
46377;SDS011;32083;47.360;9.650;2023-03-08T12:19:33;11.18;;;7.03;;
46377;SDS011;32083;47.360;9.650;2023-03-08T12:22:20;12.88;;;8.18;;
46377;SDS011;32083;47.360;9.650;2023-03-08T12:31:07;11.82;;;7.50;;
46377;SDS011;32083;47.360;9.650;2023-03-08T12:33:47;9.77;;;7.00;;
46377;SDS011;32083;47.360;9.650;2023-03-08T12:36:13;11.85;;;7.72;;
46377;SDS011;32083;47.360;9.650;2023-03-08T12:38:40;10.40;;;7.07;;
46377;SDS011;32083;47.360;9.650;2023-03-08T12:44:06;8.93;;;6.28;;
46377;SDS011;32083;47.360;9.650;2023-03-08T12:46:58;11.50;;;6.78;;
46377;SDS011;32083;47.360;9.650;2023-03-08T12:49:43;10.82;;;6.28;;
46377;SDS011;32083;47.360;9.650;2023-03-08T12:54:42;10.25;;;6.60;;
46377;SDS011;32083;47.360;9.650;2023-03-08T12:57:28;13.73;;;7.57;;
46377;SDS011;32083;47.360;9.650;2023-03-08T12:59:58;10.85;;;6.97;;
46377;SDS011;32083;47.360;9.650;2023-03-08T13:02:32;11.07;;;6.68;;
46377;SDS011;32083;47.360;9.650;2023-03-08T13:08:00;8.32;;;5.93;;
46377;SDS011;32083;47.360;9.650;2023-03-08T13:10:34;8.32;;;5.68;;
46377;SDS011;32083;47.360;9.650;2023-03-08T13:15:37;7.88;;;5.22;;
46377;SDS011;32083;47.360;9.650;2023-03-08T13:28:22;5.32;;;3.10;;
46377;SDS011;32083;47.360;9.650;2023-03-08T13:30:50;4.38;;;2.72;;
46377;SDS011;32083;47.360;9.650;2023-03-08T13:33:21;5.10;;;2.90;;
46377;SDS011;32083;47.360;9.650;2023-03-08T13:35:54;2.53;;;1.98;;
46377;SDS011;32083;47.360;9.650;2023-03-08T13:38:21;4.07;;;2.90;;
46377;SDS011;32083;47.360;9.650;2023-03-08T13:40:52;3.45;;;2.95;;
46377;SDS011;32083;47.360;9.650;2023-03-08T13:43:23;4.88;;;3.55;;
46377;SDS011;32083;47.360;9.650;2023-03-08T13:45:51;4.07;;;2.72;;
46377;SDS011;32083;47.360;9.650;2023-03-08T13:48:19;3.35;;;3.00;;
46377;SDS011;32083;47.360;9.650;2023-03-08T13:50:47;4.10;;;2.80;;
46377;SDS011;32083;47.360;9.650;2023-03-08T13:53:19;4.90;;;2.05;;
46377;SDS011;32083;47.360;9.650;2023-03-08T13:55:51;4.50;;;1.77;;
46377;SDS011;32083;47.360;9.650;2023-03-08T13:58:34;4.82;;;2.08;;
46377;SDS011;32083;47.360;9.650;2023-03-08T14:01:13;3.60;;;2.13;;
46377;SDS011;32083;47.360;9.650;2023-03-08T14:03:43;6.22;;;2.85;;
46377;SDS011;32083;47.360;9.650;2023-03-08T14:06:23;3.55;;;2.30;;
46377;SDS011;32083;47.360;9.650;2023-03-08T14:08:52;6.15;;;2.10;;
46377;SDS011;32083;47.360;9.650;2023-03-08T14:11:28;3.05;;;1.65;;
46377;SDS011;32083;47.360;9.650;2023-03-08T14:13:56;3.03;;;1.88;;
46377;SDS011;32083;47.360;9.650;2023-03-08T14:16:33;3.83;;;1.50;;
46377;SDS011;32083;47.360;9.650;2023-03-08T14:19:25;4.53;;;1.83;;
46377;SDS011;32083;47.360;9.650;2023-03-08T14:21:57;3.22;;;2.15;;
46377;SDS011;32083;47.360;9.650;2023-03-08T14:24:35;11.48;;;2.40;;
46377;SDS011;32083;47.360;9.650;2023-03-08T14:27:06;4.95;;;2.15;;
46377;SDS011;32083;47.360;9.650;2023-03-08T14:30:03;5.35;;;1.80;;
46377;SDS011;32083;47.360;9.650;2023-03-08T14:35:39;4.63;;;1.70;;
46377;SDS011;32083;47.360;9.650;2023-03-08T14:38:40;6.50;;;1.98;;
46377;SDS011;32083;47.360;9.650;2023-03-08T14:41:01;4.00;;;1.65;;
46377;SDS011;32083;47.360;9.650;2023-03-08T14:43:31;3.85;;;2.22;;
46377;SDS011;32083;47.360;9.650;2023-03-08T14:46:01;3.88;;;1.90;;
46377;SDS011;32083;47.360;9.650;2023-03-08T14:48:33;3.70;;;1.70;;
46377;SDS011;32083;47.360;9.650;2023-03-08T14:51:01;1.73;;;1.27;;
46377;SDS011;32083;47.360;9.650;2023-03-08T14:53:36;3.55;;;1.55;;
46377;SDS011;32083;47.360;9.650;2023-03-08T14:56:05;5.22;;;1.95;;
46377;SDS011;32083;47.360;9.650;2023-03-08T14:58:37;8.23;;;2.10;;
46377;SDS011;32083;47.360;9.650;2023-03-08T15:01:09;4.88;;;1.45;;
46377;SDS011;32083;47.360;9.650;2023-03-08T15:03:35;2.97;;;1.70;;
46377;SDS011;32083;47.360;9.650;2023-03-08T15:06:04;2.40;;;1.90;;
46377;SDS011;32083;47.360;9.650;2023-03-08T15:08:37;3.28;;;2.03;;
46377;SDS011;32083;47.360;9.650;2023-03-08T15:11:05;5.25;;;2.08;;
46377;SDS011;32083;47.360;9.650;2023-03-08T15:13:31;5.53;;;2.03;;
46377;SDS011;32083;47.360;9.650;2023-03-08T15:15:57;5.40;;;2.85;;
46377;SDS011;32083;47.360;9.650;2023-03-08T15:18:23;4.53;;;3.17;;
46377;SDS011;32083;47.360;9.650;2023-03-08T15:20:49;4.45;;;2.33;;
46377;SDS011;32083;47.360;9.650;2023-03-08T15:23:20;3.60;;;2.00;;
46377;SDS011;32083;47.360;9.650;2023-03-08T15:25:52;4.45;;;2.45;;
46377;SDS011;32083;47.360;9.650;2023-03-08T15:28:19;5.65;;;2.10;;
46377;SDS011;32083;47.360;9.650;2023-03-08T15:30:46;3.72;;;2.08;;
46377;SDS011;32083;47.360;9.650;2023-03-08T15:33:13;3.67;;;1.45;;
46377;SDS011;32083;47.360;9.650;2023-03-08T15:35:39;5.95;;;2.00;;
46377;SDS011;32083;47.360;9.650;2023-03-08T15:38:06;5.30;;;1.88;;
46377;SDS011;32083;47.360;9.650;2023-03-08T15:40:34;5.43;;;2.42;;
46377;SDS011;32083;47.360;9.650;2023-03-08T15:43:00;4.20;;;2.15;;
46377;SDS011;32083;47.360;9.650;2023-03-08T15:45:26;4.18;;;3.25;;
46377;SDS011;32083;47.360;9.650;2023-03-08T15:48:05;9.02;;;2.50;;
46377;SDS011;32083;47.360;9.650;2023-03-08T15:50:36;4.53;;;3.15;;
46377;SDS011;32083;47.360;9.650;2023-03-08T15:53:03;3.63;;;2.85;;
46377;SDS011;32083;47.360;9.650;2023-03-08T15:55:30;5.82;;;3.53;;
46377;SDS011;32083;47.360;9.650;2023-03-08T15:57:57;7.78;;;3.80;;
46377;SDS011;32083;47.360;9.650;2023-03-08T16:00:24;6.00;;;3.10;;
46377;SDS011;32083;47.360;9.650;2023-03-08T16:02:50;7.60;;;4.30;;
46377;SDS011;32083;47.360;9.650;2023-03-08T16:05:17;8.32;;;4.47;;
46377;SDS011;32083;47.360;9.650;2023-03-08T16:07:47;6.10;;;3.58;;
46377;SDS011;32083;47.360;9.650;2023-03-08T16:10:24;8.15;;;3.67;;
46377;SDS011;32083;47.360;9.650;2023-03-08T16:12:51;9.93;;;3.95;;
46377;SDS011;32083;47.360;9.650;2023-03-08T16:15:17;6.43;;;3.88;;
46377;SDS011;32083;47.360;9.650;2023-03-08T16:17:44;17.83;;;5.97;;
46377;SDS011;32083;47.360;9.650;2023-03-08T16:20:10;5.88;;;3.95;;
46377;SDS011;32083;47.360;9.650;2023-03-08T16:22:38;4.40;;;3.05;;
46377;SDS011;32083;47.360;9.650;2023-03-08T16:25:04;7.60;;;4.00;;